createdAt,value
2022-09-23T00:00:53.168Z,1010.59
2022-09-23T00:01:53.502Z,1010.62
2022-09-23T00:02:53.489Z,1010.60
2022-09-23T00:03:53.930Z,1010.54
2022-09-23T00:04:53.844Z,1010.64
2022-09-23T00:05:54.032Z,1010.51
2022-09-23T00:06:54.220Z,1010.54
2022-09-23T00:07:55.002Z,1010.52
2022-09-23T00:08:54.530Z,1010.56
2022-09-23T00:09:54.694Z,1010.56
2022-09-23T00:10:54.955Z,1010.52
2022-09-23T00:11:55.010Z,1010.55
2022-09-23T00:12:55.943Z,1010.53
2022-09-23T00:13:55.457Z,1010.52
2022-09-23T00:14:55.484Z,1010.54
2022-09-23T00:15:55.633Z,1010.58
2022-09-23T00:16:55.852Z,1010.58
2022-09-23T00:17:56.005Z,1010.49
2022-09-23T00:18:56.175Z,1010.56
2022-09-23T00:19:56.327Z,1010.54
2022-09-23T00:20:56.495Z,1010.46
2022-09-23T00:21:56.651Z,1010.51
2022-09-23T00:22:56.795Z,1010.45
2022-09-23T00:23:57.474Z,1010.50
2022-09-23T00:24:57.445Z,1010.54
2022-09-23T00:25:57.330Z,1010.49
2022-09-23T00:26:57.488Z,1010.50
2022-09-23T00:27:58.436Z,1010.39
2022-09-23T00:28:57.789Z,1010.37
2022-09-23T00:29:57.954Z,1010.46
2022-09-23T00:30:58.200Z,1010.45
2022-09-23T00:31:58.258Z,1010.36
2022-09-23T00:32:58.428Z,1010.32
2022-09-23T00:33:59.462Z,1010.32
2022-09-23T00:34:58.732Z,1010.34
2022-09-23T00:35:58.938Z,1010.27
2022-09-23T00:36:59.941Z,1010.34
2022-09-23T00:37:59.331Z,1010.33
2022-09-23T00:38:59.562Z,1010.36
2022-09-23T00:39:59.621Z,1010.34
2022-09-23T00:40:59.736Z,1010.33
2022-09-23T00:41:59.954Z,1010.33
2022-09-23T00:43:00.944Z,1010.29
2022-09-23T00:44:00.455Z,1010.28
2022-09-23T00:45:01.443Z,1010.32
2022-09-23T00:46:00.993Z,1010.30
2022-09-23T00:47:00.852Z,1010.30
2022-09-23T00:48:00.993Z,1010.40
2022-09-23T00:49:01.450Z,1010.30
2022-09-23T00:50:01.324Z,1010.30
2022-09-23T00:51:01.506Z,1010.28
2022-09-23T00:52:01.649Z,1010.32
2022-09-23T00:53:01.802Z,1010.29
2022-09-23T00:54:02.009Z,1010.30
2022-09-23T00:55:02.148Z,1010.25
2022-09-23T00:56:02.307Z,1010.30
2022-09-23T00:57:02.462Z,1010.24
2022-09-23T00:58:02.667Z,1010.22
2022-09-23T00:59:02.851Z,1010.23
2022-09-23T01:00:03.009Z,1010.27
2022-09-23T01:01:03.221Z,1010.21
2022-09-23T01:02:03.363Z,1010.17
2022-09-23T01:03:03.948Z,1010.14
2022-09-23T01:04:03.637Z,1010.17
2022-09-23T01:05:04.443Z,1010.17
2022-09-23T01:06:03.976Z,1010.23
2022-09-23T01:07:04.172Z,1010.14
2022-09-23T01:08:04.323Z,1010.09
2022-09-23T01:09:04.462Z,1010.12
2022-09-23T01:10:05.467Z,1010.04
2022-09-23T01:11:05.443Z,1010.08
2022-09-23T01:12:04.984Z,1010.05
2022-09-23T01:13:05.952Z,1010.04
2022-09-23T01:14:05.328Z,1010.03
2022-09-23T01:15:06.454Z,1010.01
2022-09-23T01:16:05.598Z,1009.98
2022-09-23T01:17:05.824Z,1009.96
2022-09-23T01:18:06.947Z,1009.96
2022-09-23T01:19:06.952Z,1009.89
2022-09-23T01:20:06.339Z,1009.93
2022-09-23T01:21:06.504Z,1009.86
2022-09-23T01:22:06.685Z,1009.84
2022-09-23T01:23:07.478Z,1009.86
2022-09-23T01:24:07.515Z,1009.89
2022-09-23T01:25:07.112Z,1009.88
2022-09-23T01:26:07.294Z,1009.91
2022-09-23T01:27:07.481Z,1009.84
2022-09-23T01:28:07.959Z,1009.82
2022-09-23T01:29:07.866Z,1009.87
2022-09-23T01:30:08.954Z,1009.84
2022-09-23T01:31:08.302Z,1009.83
2022-09-23T01:32:08.418Z,1009.85
2022-09-23T01:33:08.572Z,1009.87
2022-09-23T01:34:09.453Z,1009.78
2022-09-23T01:35:08.971Z,1009.81
2022-09-23T01:36:09.167Z,1009.80
2022-09-23T01:37:09.344Z,1009.79
2022-09-23T01:38:09.504Z,1009.79
2022-09-23T01:39:09.723Z,1009.78
2022-09-23T01:40:09.824Z,1009.72
2022-09-23T01:41:09.973Z,1009.73
2022-09-23T01:42:10.130Z,1009.72
2022-09-23T01:43:10.474Z,1009.71
2022-09-23T01:44:10.473Z,1009.72
2022-09-23T01:45:10.602Z,1009.71
2022-09-23T01:46:10.741Z,1009.68
2022-09-23T01:47:11.460Z,1009.72
2022-09-23T01:48:11.130Z,1009.67
2022-09-23T01:49:11.300Z,1009.65
2022-09-23T01:50:11.436Z,1009.64
2022-09-23T01:51:12.463Z,1009.70
2022-09-23T01:52:11.722Z,1009.66
2022-09-23T01:53:11.848Z,1009.62
2022-09-23T01:54:12.008Z,1009.65
2022-09-23T01:55:12.959Z,1009.63
2022-09-23T01:56:12.334Z,1009.68
2022-09-23T01:57:12.475Z,1009.71
2022-09-23T01:58:13.465Z,1009.67
2022-09-23T01:59:12.826Z,1009.66
2022-09-23T02:00:12.980Z,1009.63
2022-09-23T02:01:13.178Z,1009.67
2022-09-23T02:02:13.997Z,1009.63
2022-09-23T02:03:13.500Z,1009.69
2022-09-23T02:04:14.473Z,1009.65
2022-09-23T02:05:13.824Z,1009.69
2022-09-23T02:06:13.989Z,1009.59
2022-09-23T02:07:14.132Z,1009.66
2022-09-23T02:08:14.286Z,1009.72
2022-09-23T02:09:14.961Z,1009.64
2022-09-23T02:10:14.968Z,1009.67
2022-09-23T02:11:14.762Z,1009.67
2022-09-23T02:12:14.901Z,1009.66
2022-09-23T02:13:15.966Z,1009.68
2022-09-23T02:14:15.230Z,1009.70
2022-09-23T02:15:16.009Z,1009.76
2022-09-23T02:16:15.559Z,1009.67
2022-09-23T02:17:15.754Z,1009.67
2022-09-23T02:18:15.912Z,1009.69
2022-09-23T02:19:16.480Z,1009.61
2022-09-23T02:20:16.262Z,1009.61
2022-09-23T02:21:16.433Z,1009.64
2022-09-23T02:22:16.612Z,1009.62
2022-09-23T02:23:17.494Z,1009.63
2022-09-23T02:24:16.873Z,1009.65
2022-09-23T02:25:17.972Z,1009.52
2022-09-23T02:26:17.225Z,1009.60
2022-09-23T02:27:17.424Z,1009.60
2022-09-23T02:28:17.592Z,1009.64
2022-09-23T02:29:17.771Z,1009.57
2022-09-23T02:30:17.972Z,1009.51
2022-09-23T02:31:18.467Z,1009.45
2022-09-23T02:32:18.371Z,1009.46
2022-09-23T02:33:18.512Z,1009.48
2022-09-23T02:34:18.649Z,1009.43
2022-09-23T02:35:18.810Z,1009.52
2022-09-23T02:36:18.942Z,1009.42
2022-09-23T02:37:19.079Z,1009.43
2022-09-23T02:38:19.243Z,1009.42
2022-09-23T02:39:19.394Z,1009.48
2022-09-23T02:40:19.602Z,1009.43
2022-09-23T02:41:19.695Z,1009.40
2022-09-23T02:42:19.872Z,1009.51
2022-09-23T02:43:20.026Z,1009.39
2022-09-23T02:44:20.150Z,1009.36
2022-09-23T02:45:20.286Z,1009.48
2022-09-23T02:46:20.521Z,1009.41
2022-09-23T02:47:20.627Z,1009.34
2022-09-23T02:48:20.755Z,1009.40
2022-09-23T02:49:21.480Z,1009.41
2022-09-23T02:50:21.112Z,1009.46
2022-09-23T02:51:21.256Z,1009.41
2022-09-23T02:52:21.424Z,1009.42
2022-09-23T02:53:21.566Z,1009.39
2022-09-23T02:54:21.691Z,1009.35
2022-09-23T02:55:21.881Z,1009.32
2022-09-23T02:56:22.052Z,1009.41
2022-09-23T02:57:22.243Z,1009.28
2022-09-23T02:58:22.402Z,1009.30
2022-09-23T02:59:22.981Z,1009.20
2022-09-23T03:00:22.736Z,1009.23
2022-09-23T03:01:23.037Z,1009.19
2022-09-23T03:02:23.141Z,1009.15
2022-09-23T03:03:23.335Z,1009.21
2022-09-23T03:04:23.477Z,1009.25
2022-09-23T03:05:23.614Z,1009.18
2022-09-23T03:06:23.784Z,1009.18
2022-09-23T03:07:23.949Z,1009.19
2022-09-23T03:08:24.109Z,1009.15
2022-09-23T03:09:24.490Z,1009.13
2022-09-23T03:10:24.984Z,1009.12
2022-09-23T03:11:24.631Z,1009.12
2022-09-23T03:12:24.773Z,1009.15
2022-09-23T03:13:29.147Z,1009.09
2022-09-23T03:14:26.494Z,1009.06
2022-09-23T03:15:25.221Z,1009.08
2022-09-23T03:16:25.408Z,1009.06
2022-09-23T03:17:26.479Z,1009.09
2022-09-23T03:18:26.481Z,1009.01
2022-09-23T03:19:26.005Z,1009.04
2022-09-23T03:20:26.487Z,1009.04
2022-09-23T03:21:26.380Z,1009.05
2022-09-23T03:22:26.537Z,1009.03
2022-09-23T03:23:26.691Z,1009.07
2022-09-23T03:24:26.830Z,1008.95
2022-09-23T03:25:26.985Z,1009.01
2022-09-23T03:26:27.157Z,1009.00
2022-09-23T03:27:27.338Z,1009.04
2022-09-23T03:28:27.518Z,1008.97
2022-09-23T03:29:27.670Z,1008.94
2022-09-23T03:30:27.835Z,1009.00
2022-09-23T03:31:28.058Z,1008.94
2022-09-23T03:32:28.126Z,1008.94
2022-09-23T03:33:29.078Z,1008.92
2022-09-23T03:34:29.983Z,1008.87
2022-09-23T03:35:29.486Z,1008.95
2022-09-23T03:36:28.861Z,1008.95
2022-09-23T03:37:29.985Z,1008.89
2022-09-23T03:38:29.220Z,1008.90
2022-09-23T03:39:29.379Z,1008.83
2022-09-23T03:40:29.582Z,1008.91
2022-09-23T03:41:29.707Z,1008.86
2022-09-23T03:42:30.486Z,1008.93
2022-09-23T03:43:30.999Z,1008.92
2022-09-23T03:44:30.255Z,1008.84
2022-09-23T03:45:30.423Z,1008.96
2022-09-23T03:46:30.591Z,1008.85
2022-09-23T03:47:30.718Z,1008.84
2022-09-23T03:48:30.836Z,1008.87
2022-09-23T03:49:31.095Z,1008.84
2022-09-23T03:50:31.202Z,1008.81
2022-09-23T03:51:31.498Z,1008.85
2022-09-23T03:52:31.490Z,1008.79
2022-09-23T03:53:31.623Z,1008.81
2022-09-23T03:54:32.495Z,1008.84
2022-09-23T03:55:31.905Z,1008.83
2022-09-23T03:56:32.060Z,1008.84
2022-09-23T03:57:32.200Z,1008.86
2022-09-23T03:58:32.344Z,1008.77
2022-09-23T03:59:32.505Z,1008.82
2022-09-23T04:00:32.732Z,1008.83
2022-09-23T04:01:32.816Z,1008.82
2022-09-23T04:02:32.993Z,1008.77
2022-09-23T04:03:33.093Z,1008.77
2022-09-23T04:04:33.258Z,1008.77
2022-09-23T04:05:33.427Z,1008.79
2022-09-23T04:06:33.580Z,1008.76
2022-09-23T04:07:33.734Z,1008.75
2022-09-23T04:08:33.864Z,1008.72
2022-09-23T04:09:34.507Z,1008.80
2022-09-23T04:10:34.140Z,1008.77
2022-09-23T04:11:34.298Z,1008.72
2022-09-23T04:12:34.445Z,1008.65
2022-09-23T04:13:34.576Z,1008.71
2022-09-23T04:14:34.716Z,1008.64
2022-09-23T04:15:34.877Z,1008.62
2022-09-23T04:16:35.067Z,1008.66
2022-09-23T04:17:35.211Z,1008.63
2022-09-23T04:18:35.336Z,1008.63
2022-09-23T04:19:35.476Z,1008.63
2022-09-23T04:20:35.614Z,1008.66
2022-09-23T04:21:35.756Z,1008.61
2022-09-23T04:22:35.874Z,1008.65
2022-09-23T04:23:35.988Z,1008.65
2022-09-23T04:24:36.129Z,1008.72
2022-09-23T04:25:36.258Z,1008.73
2022-09-23T04:26:36.430Z,1008.70
2022-09-23T04:27:37.789Z,1008.72
2022-09-23T04:28:37.702Z,1008.73
2022-09-23T04:29:36.928Z,1008.71
2022-09-23T04:30:37.508Z,1008.62
2022-09-23T04:31:37.317Z,1008.69
2022-09-23T04:32:37.501Z,1008.67
2022-09-23T04:33:37.684Z,1008.66
2022-09-23T04:34:37.819Z,1008.73
2022-09-23T04:35:40.178Z,1008.61
2022-09-23T04:36:39.212Z,1008.67
2022-09-23T04:37:38.436Z,1008.64
2022-09-23T04:38:38.589Z,1008.67
2022-09-23T04:39:39.501Z,1008.66
2022-09-23T04:40:38.944Z,1008.66
2022-09-23T04:41:39.010Z,1008.69
2022-09-23T04:42:39.140Z,1008.68
2022-09-23T04:43:39.521Z,1008.71
2022-09-23T04:44:39.528Z,1008.65
2022-09-23T04:45:39.656Z,1008.68
2022-09-23T04:46:39.835Z,1008.65
2022-09-23T04:47:39.980Z,1008.63
2022-09-23T04:48:41.257Z,1008.61
2022-09-23T04:49:40.518Z,1008.65
2022-09-23T04:50:40.515Z,1008.61
2022-09-23T04:51:40.636Z,1008.66
2022-09-23T04:52:40.873Z,1008.73
2022-09-23T04:53:41.115Z,1008.60
2022-09-23T04:54:41.257Z,1008.68
2022-09-23T04:55:41.360Z,1008.66
2022-09-23T04:56:41.495Z,1008.59
2022-09-23T04:57:41.625Z,1008.64
2022-09-23T04:58:41.858Z,1008.66
2022-09-23T04:59:42.115Z,1008.61
2022-09-23T05:00:43.075Z,1008.63
2022-09-23T05:01:42.589Z,1008.61
2022-09-23T05:02:42.661Z,1008.58
2022-09-23T05:03:42.815Z,1008.52
2022-09-23T05:04:42.948Z,1008.58
2022-09-23T05:05:43.073Z,1008.57
2022-09-23T05:06:44.237Z,1008.53
2022-09-23T05:07:43.347Z,1008.53
2022-09-23T05:08:43.515Z,1008.56
2022-09-23T05:09:44.518Z,1008.52
2022-09-23T05:10:43.912Z,1008.52
2022-09-23T05:11:44.091Z,1008.50
2022-09-23T05:12:44.509Z,1008.47
2022-09-23T05:13:44.419Z,1008.45
2022-09-23T05:14:44.614Z,1008.45
2022-09-23T05:15:44.777Z,1008.46
2022-09-23T05:16:44.958Z,1008.49
2022-09-23T05:17:45.139Z,1008.45
2022-09-23T05:18:46.011Z,1008.43
2022-09-23T05:19:45.551Z,1008.43
2022-09-23T05:20:45.729Z,1008.39
2022-09-23T05:21:45.940Z,1008.39
2022-09-23T05:22:46.083Z,1008.44
2022-09-23T05:23:46.278Z,1008.42
2022-09-23T05:24:46.434Z,1008.41
2022-09-23T05:25:47.521Z,1008.37
2022-09-23T05:26:46.769Z,1008.39
2022-09-23T05:27:46.896Z,1008.39
2022-09-23T05:28:47.544Z,1008.38
2022-09-23T05:29:47.295Z,1008.40
2022-09-23T05:30:47.435Z,1008.45
2022-09-23T05:31:47.647Z,1008.48
2022-09-23T05:32:47.812Z,1008.39
2022-09-23T05:33:47.950Z,1008.47
2022-09-23T05:34:48.118Z,1008.44
2022-09-23T05:35:49.091Z,1008.43
2022-09-23T05:36:48.474Z,1008.43
2022-09-23T05:37:49.519Z,1008.41
2022-09-23T05:38:49.531Z,1008.39
2022-09-23T05:39:48.937Z,1008.39
2022-09-23T05:40:49.155Z,1008.44
2022-09-23T05:41:49.329Z,1008.43
2022-09-23T05:42:49.462Z,1008.38
2022-09-23T05:43:50.645Z,1008.41
2022-09-23T05:44:50.034Z,1008.39
2022-09-23T05:45:49.910Z,1008.40
2022-09-23T05:46:50.173Z,1008.36
2022-09-23T05:47:50.236Z,1008.41
2022-09-23T05:48:50.410Z,1008.40
2022-09-23T05:49:59.524Z,1008.37
2022-09-23T05:50:52.815Z,1008.41
2022-09-23T05:51:50.938Z,1008.46
2022-09-23T05:52:51.120Z,1008.45
2022-09-23T05:53:51.297Z,1008.46
2022-09-23T05:54:51.522Z,1008.43
2022-09-23T05:55:51.726Z,1008.49
2022-09-23T05:56:52.523Z,1008.43
2022-09-23T05:57:52.040Z,1008.36
2022-09-23T05:58:52.187Z,1008.37
2022-09-23T05:59:52.343Z,1008.37
2022-09-23T06:00:53.023Z,1008.28
2022-09-23T06:01:56.292Z,1008.27
2022-09-23T06:02:54.103Z,1008.22
2022-09-23T06:03:53.011Z,1008.15
2022-09-23T06:04:53.209Z,1008.03
2022-09-23T06:05:53.282Z,1007.92
2022-09-23T06:06:53.415Z,1007.78
2022-09-23T06:07:53.553Z,1007.62
2022-09-23T06:08:53.745Z,1007.41
2022-09-23T06:09:54.061Z,1007.36
2022-09-23T06:10:54.752Z,1007.09
2022-09-23T06:11:54.295Z,1006.84
2022-09-23T06:12:55.030Z,1006.47
2022-09-23T06:13:54.633Z,1005.99
2022-09-23T06:14:54.780Z,1005.35
2022-09-23T06:15:54.985Z,1004.69
2022-09-23T06:16:55.118Z,1004.22
2022-09-23T06:17:55.269Z,1003.99
2022-09-23T06:18:55.433Z,1003.84
2022-09-23T06:19:55.586Z,1003.55
2022-09-23T06:20:55.738Z,1003.31
2022-09-23T06:21:55.932Z,1003.56
2022-09-23T06:22:56.543Z,1004.02
2022-09-23T06:23:57.267Z,1004.54
2022-09-23T06:24:57.296Z,1004.82
2022-09-23T06:25:56.534Z,1005.14
2022-09-23T06:26:57.537Z,1005.29
2022-09-23T06:27:56.768Z,1005.27
2022-09-23T06:28:56.988Z,1005.16
2022-09-23T06:29:57.137Z,1004.87
2022-09-23T06:30:57.389Z,1004.70
2022-09-23T06:31:57.543Z,1004.60
2022-09-23T06:32:57.618Z,1004.39
2022-09-23T06:34:08.528Z,1004.33
2022-09-23T06:35:00.035Z,1004.09
2022-09-23T06:35:59.983Z,1003.95
2022-09-23T06:37:04.810Z,1003.99
2022-09-23T06:37:59.506Z,1004.09
2022-09-23T06:38:58.621Z,1003.97
2022-09-23T06:39:59.563Z,1003.84
2022-09-23T06:40:58.924Z,1003.78
2022-09-23T06:41:59.168Z,1003.74
2022-09-23T06:42:59.316Z,1003.81
2022-09-23T06:43:59.446Z,1003.76
2022-09-23T06:45:00.560Z,1003.56
2022-09-23T06:45:59.785Z,1003.46
2022-09-23T06:46:59.954Z,1003.46
2022-09-23T06:48:00.103Z,1003.37
2022-09-23T06:49:01.039Z,1003.30
2022-09-23T06:50:01.087Z,1003.29
2022-09-23T06:51:00.597Z,1003.44
2022-09-23T06:52:02.559Z,1003.57
2022-09-23T06:53:00.883Z,1003.79
2022-09-23T06:54:01.129Z,1003.80
2022-09-23T06:55:02.085Z,1003.69
2022-09-23T06:56:01.450Z,1003.62
2022-09-23T06:57:01.584Z,1003.61
2022-09-23T06:58:01.705Z,1003.71
2022-09-23T06:59:02.541Z,1003.69
2022-09-23T07:00:02.043Z,1003.69
2022-09-23T07:01:03.062Z,1003.56
2022-09-23T07:02:02.577Z,1003.36
2022-09-23T07:03:02.597Z,1003.25
2022-09-23T07:04:02.777Z,1002.95
2022-09-23T07:05:02.895Z,1002.59
2022-09-23T07:06:03.028Z,1002.36
2022-09-23T07:07:04.064Z,1002.35
2022-09-23T07:08:03.289Z,1002.15
2022-09-23T07:09:03.437Z,1002.26
2022-09-23T07:10:03.571Z,1002.14
2022-09-23T07:11:03.728Z,1002.09
2022-09-23T07:12:03.854Z,1002.06
2022-09-23T07:13:04.022Z,1002.07
2022-09-23T07:14:04.180Z,1002.16
2022-09-23T07:15:04.330Z,1002.01
2022-09-23T07:16:04.705Z,1001.66
2022-09-23T07:17:04.651Z,1001.46
2022-09-23T07:18:04.787Z,1001.13
2022-09-23T07:19:05.037Z,1001.01
2022-09-23T07:20:06.054Z,1000.90
2022-09-23T07:21:05.564Z,1000.76
2022-09-23T07:22:06.555Z,1000.69
2022-09-23T07:23:05.773Z,1000.71
2022-09-23T07:24:05.903Z,1000.67
2022-09-23T07:25:07.068Z,1000.64
2022-09-23T07:26:06.315Z,1000.53
2022-09-23T07:27:06.440Z,1000.39
2022-09-23T07:28:07.586Z,1000.34
2022-09-23T07:29:06.791Z,1000.39
2022-09-23T07:30:10.360Z,1000.38
2022-09-23T07:31:08.310Z,1000.29
2022-09-23T07:32:13.692Z,1000.27
2022-09-23T07:33:27.528Z,1000.18
2022-09-23T07:34:10.556Z,1000.05
2022-09-23T07:35:08.050Z,999.95
2022-09-23T07:36:08.583Z,999.76
2022-09-23T07:37:08.327Z,999.68
2022-09-23T07:38:08.472Z,999.68
2022-09-23T07:39:08.716Z,999.79
2022-09-23T07:40:08.803Z,1000.26
2022-09-23T07:41:09.083Z,1000.70
2022-09-23T07:42:10.082Z,1000.91
2022-09-23T07:43:09.329Z,1001.20
2022-09-23T07:44:09.519Z,1001.38
2022-09-23T07:45:09.688Z,1001.57
2022-09-23T07:46:09.941Z,1001.77
2022-09-23T07:47:10.019Z,1001.87
2022-09-23T07:48:10.199Z,1001.92
2022-09-23T07:49:11.067Z,1002.01
2022-09-23T07:50:10.581Z,1001.96
2022-09-23T07:51:11.580Z,1001.84
2022-09-23T07:52:10.970Z,1001.81
2022-09-23T07:53:11.133Z,1001.70
2022-09-23T07:54:11.287Z,1001.72
2022-09-23T07:55:11.442Z,1001.82
2022-09-23T07:56:12.583Z,1001.68
2022-09-23T07:57:11.808Z,1001.68
2022-09-23T07:58:11.932Z,1001.70
2022-09-23T07:59:12.069Z,1001.67
2022-09-23T08:00:13.065Z,1001.70
2022-09-23T08:01:12.496Z,1001.93
2022-09-23T08:02:12.712Z,1001.97
2022-09-23T08:03:12.904Z,1001.96
2022-09-23T08:04:13.570Z,1001.89
2022-09-23T08:05:14.071Z,1001.75
2022-09-23T08:06:13.425Z,1001.82
2022-09-23T08:07:13.585Z,1001.95
2022-09-23T08:08:13.729Z,1002.12
2022-09-23T08:09:14.571Z,1002.24
2022-09-23T08:10:14.037Z,1002.38
2022-09-23T08:11:14.272Z,1002.54
2022-09-23T08:12:16.162Z,1002.61
2022-09-23T08:13:15.586Z,1002.62
2022-09-23T08:14:15.577Z,1002.57
2022-09-23T08:15:14.941Z,1002.63
2022-09-23T08:16:15.121Z,1002.76
2022-09-23T08:17:15.302Z,1002.74
2022-09-23T08:18:15.441Z,1002.70
2022-09-23T08:19:15.609Z,1002.70
2022-09-23T08:20:15.751Z,1002.77
2022-09-23T08:21:15.892Z,1002.58
2022-09-23T08:22:16.032Z,1002.49
2022-09-23T08:23:16.170Z,1002.35
2022-09-23T08:24:16.305Z,1002.31
2022-09-23T08:25:18.665Z,1002.41
2022-09-23T08:26:21.612Z,1002.48
2022-09-23T08:27:19.583Z,1002.47
2022-09-23T08:28:17.140Z,1002.67
2022-09-23T08:29:17.277Z,1002.78
2022-09-23T08:30:17.399Z,1002.90
2022-09-23T08:31:17.733Z,1002.95
2022-09-23T08:32:17.785Z,1003.04
2022-09-23T08:33:23.153Z,1003.10
2022-09-23T08:34:20.153Z,1003.24
2022-09-23T08:35:18.393Z,1003.28
2022-09-23T08:36:18.592Z,1003.32
2022-09-23T08:37:19.092Z,1003.39
2022-09-23T08:38:19.582Z,1003.53
2022-09-23T08:39:19.208Z,1003.51
2022-09-23T08:40:20.108Z,1003.60
2022-09-23T08:41:19.478Z,1003.69
2022-09-23T08:42:20.098Z,1003.81
2022-09-23T08:43:19.712Z,1003.80
2022-09-23T08:44:19.842Z,1003.83
2022-09-23T08:45:20.580Z,1003.75
2022-09-23T08:46:20.333Z,1003.77
2022-09-23T08:47:20.597Z,1003.85
2022-09-23T08:48:21.584Z,1003.83
2022-09-23T08:49:20.938Z,1003.83
2022-09-23T08:50:21.178Z,1003.88
2022-09-23T08:51:21.221Z,1003.86
2022-09-23T08:52:21.353Z,1003.97
2022-09-23T08:53:21.487Z,1004.05
2022-09-23T08:54:22.103Z,1004.09
2022-09-23T08:55:21.825Z,1004.16
2022-09-23T08:56:21.946Z,1004.26
2022-09-23T08:57:22.178Z,1004.30
2022-09-23T08:58:25.263Z,1004.44
2022-09-23T08:59:23.500Z,1004.49
2022-09-23T09:00:23.590Z,1004.54
2022-09-23T09:01:23.003Z,1004.62
2022-09-23T09:02:24.169Z,1004.62
2022-09-23T09:03:23.855Z,1004.66
2022-09-23T09:04:24.134Z,1004.78
2022-09-23T09:05:23.736Z,1004.83
2022-09-23T09:06:23.869Z,1004.85
2022-09-23T09:07:36.371Z,1004.85
2022-09-23T09:08:26.195Z,1004.93
2022-09-23T09:09:24.430Z,1005.07
2022-09-23T09:10:24.566Z,1005.09
2022-09-23T09:11:24.694Z,1005.08
2022-09-23T09:12:24.845Z,1005.10
2022-09-23T09:13:24.968Z,1005.18
2022-09-23T09:14:25.610Z,1005.16
2022-09-23T09:15:25.455Z,1005.22
2022-09-23T09:16:48.355Z,1005.22
2022-09-23T09:17:31.709Z,1005.21
2022-09-23T09:18:26.906Z,1005.21
2022-09-23T09:19:26.146Z,1005.20
2022-09-23T09:20:26.638Z,1005.24
2022-09-23T09:21:26.537Z,1005.20
2022-09-23T09:22:26.742Z,1005.24
2022-09-23T09:23:26.905Z,1005.27
2022-09-23T09:24:27.055Z,1005.26
2022-09-23T09:25:32.103Z,1005.26
2022-09-23T09:26:30.126Z,1005.27
2022-09-23T09:27:27.486Z,1005.13
2022-09-23T09:28:28.599Z,1005.23
2022-09-23T09:29:36.214Z,1005.21
2022-09-23T09:30:29.993Z,1005.30
2022-09-23T09:31:28.154Z,1005.32
2022-09-23T09:32:28.350Z,1005.33
2022-09-23T09:33:29.105Z,1005.34
2022-09-23T09:34:28.625Z,1005.38
2022-09-23T09:35:28.761Z,1005.42
2022-09-23T09:36:30.858Z,1005.36
2022-09-23T09:37:31.758Z,1005.39
2022-09-23T09:38:30.106Z,1005.40
2022-09-23T09:39:29.451Z,1005.41
2022-09-23T09:40:29.640Z,1005.41
2022-09-23T09:41:29.820Z,1005.41
2022-09-23T09:42:29.967Z,1005.44
2022-09-23T09:43:32.488Z,1005.42
2022-09-23T09:44:30.301Z,1005.37
2022-09-23T09:45:30.422Z,1005.47
2022-09-23T09:46:30.614Z,1005.41
2022-09-23T09:47:30.777Z,1005.47
2022-09-23T09:48:31.121Z,1005.45
2022-09-23T09:49:31.119Z,1005.45
2022-09-23T09:50:31.267Z,1005.50
2022-09-23T09:51:31.394Z,1005.50
2022-09-23T09:52:31.530Z,1005.50
2022-09-23T09:53:32.073Z,1005.51
2022-09-23T09:54:32.067Z,1005.58
2022-09-23T09:55:32.078Z,1005.60
2022-09-23T09:56:32.224Z,1005.64
2022-09-23T09:57:35.322Z,1005.58
2022-09-23T09:58:32.542Z,1005.68
2022-09-23T09:59:32.672Z,1005.61
2022-09-23T10:00:32.827Z,1005.59
2022-09-23T10:01:33.034Z,1005.61
2022-09-23T10:02:33.113Z,1005.57
2022-09-23T10:03:33.300Z,1005.60
2022-09-23T10:04:33.467Z,1005.54
2022-09-23T10:05:34.561Z,1005.57
2022-09-23T10:06:33.844Z,1005.62
2022-09-23T10:07:34.002Z,1005.59
2022-09-23T10:08:34.161Z,1005.61
2022-09-23T10:09:34.327Z,1005.56
2022-09-23T10:10:34.537Z,1005.61
2022-09-23T10:11:34.739Z,1005.61
2022-09-23T10:12:34.912Z,1005.60
2022-09-23T10:13:35.071Z,1005.63
2022-09-23T10:14:35.231Z,1005.65
2022-09-23T10:15:35.395Z,1005.61
2022-09-23T10:16:35.598Z,1005.62
2022-09-23T10:17:35.781Z,1005.61
2022-09-23T10:18:36.557Z,1005.67
2022-09-23T10:19:36.562Z,1005.57
2022-09-23T10:20:36.182Z,1005.64
2022-09-23T10:21:36.592Z,1005.61
2022-09-23T10:22:37.560Z,1005.58
2022-09-23T10:23:37.583Z,1005.58
2022-09-23T10:24:36.933Z,1005.60
2022-09-23T10:25:37.560Z,1005.70
2022-09-23T10:26:37.293Z,1005.74
2022-09-23T10:27:37.405Z,1005.71
2022-09-23T10:28:37.562Z,1005.73
2022-09-23T10:29:37.693Z,1005.71
2022-09-23T10:30:37.871Z,1005.72
2022-09-23T10:31:38.006Z,1005.67
2022-09-23T10:32:38.157Z,1005.70
2022-09-23T10:33:38.279Z,1005.66
2022-09-23T10:34:38.511Z,1005.63
2022-09-23T10:35:38.635Z,1005.62
2022-09-23T10:36:43.743Z,1005.60
2022-09-23T10:37:40.985Z,1005.54
2022-09-23T10:38:39.211Z,1005.55
2022-09-23T10:39:39.322Z,1005.52
2022-09-23T10:40:39.653Z,1005.49
2022-09-23T10:41:39.619Z,1005.57
2022-09-23T10:42:40.073Z,1005.52
2022-09-23T10:43:40.132Z,1005.61
2022-09-23T10:44:40.224Z,1005.59
2022-09-23T10:45:43.233Z,1005.60
2022-09-23T10:46:41.764Z,1005.52
2022-09-23T10:47:40.801Z,1005.57
2022-09-23T10:48:40.977Z,1005.62
2022-09-23T10:49:41.131Z,1005.59
2022-09-23T10:50:41.275Z,1005.51
2022-09-23T10:51:41.430Z,1005.58
2022-09-23T10:52:41.612Z,1005.60
2022-09-23T10:53:42.587Z,1005.56
2022-09-23T10:54:41.963Z,1005.62
2022-09-23T10:55:43.082Z,1005.59
2022-09-23T10:56:42.319Z,1005.55
2022-09-23T10:57:42.595Z,1005.61
2022-09-23T10:58:42.615Z,1005.62
2022-09-23T10:59:42.754Z,1005.64
2022-09-23T11:00:42.891Z,1005.58
2022-09-23T11:01:43.060Z,1005.54
2022-09-23T11:02:43.286Z,1005.59
2022-09-23T11:03:43.454Z,1005.54
2022-09-23T11:04:43.659Z,1005.54
2022-09-23T11:05:43.772Z,1005.56
2022-09-23T11:06:43.940Z,1005.52
2022-09-23T11:07:44.097Z,1005.51
2022-09-23T11:08:45.094Z,1005.42
2022-09-23T11:09:44.484Z,1005.42
2022-09-23T11:10:46.338Z,1005.33
2022-09-23T11:11:45.768Z,1005.34
2022-09-23T11:12:45.023Z,1005.21
2022-09-23T11:13:45.183Z,1005.12
2022-09-23T11:14:46.100Z,1005.03
2022-09-23T11:15:46.095Z,1004.97
2022-09-23T11:16:45.619Z,1004.96
2022-09-23T11:17:45.815Z,1004.94
2022-09-23T11:18:45.953Z,1004.85
2022-09-23T11:19:46.601Z,1004.85
2022-09-23T11:20:46.211Z,1004.78
2022-09-23T11:21:46.377Z,1004.75
2022-09-23T11:22:46.514Z,1004.78
2022-09-23T11:23:46.640Z,1004.80
2022-09-23T11:24:46.775Z,1004.78
2022-09-23T11:25:46.896Z,1004.75
2022-09-23T11:26:47.622Z,1004.71
2022-09-23T11:27:47.363Z,1004.68
2022-09-23T11:28:47.598Z,1004.65
2022-09-23T11:29:47.842Z,1004.59
2022-09-23T11:30:48.021Z,1004.53
2022-09-23T11:31:48.621Z,1004.53
2022-09-23T11:32:49.211Z,1004.44
2022-09-23T11:33:48.501Z,1004.43
2022-09-23T11:34:52.571Z,1004.38
2022-09-23T11:35:51.613Z,1004.38
2022-09-23T11:36:48.932Z,1004.35
2022-09-23T11:37:49.061Z,1004.35
2022-09-23T11:38:49.179Z,1004.30
2022-09-23T11:39:49.304Z,1004.26
2022-09-23T11:40:50.171Z,1004.29
2022-09-23T11:41:49.570Z,1004.25
2022-09-23T11:42:50.619Z,1004.23
2022-09-23T11:43:50.617Z,1004.08
2022-09-23T11:44:50.067Z,1004.08
2022-09-23T11:45:50.217Z,1004.12
2022-09-23T11:46:50.357Z,1004.14
2022-09-23T11:47:50.480Z,1004.09
2022-09-23T11:48:50.604Z,1004.04
2022-09-23T11:49:50.736Z,1004.01
2022-09-23T11:50:50.893Z,1003.99
2022-09-23T11:51:51.019Z,1004.01
2022-09-23T11:52:51.140Z,1003.93
2022-09-23T11:53:51.311Z,1003.91
2022-09-23T11:54:51.447Z,1003.85
2022-09-23T11:55:58.008Z,1003.91
2022-09-23T11:56:53.804Z,1003.91
2022-09-23T11:57:51.992Z,1003.89
2022-09-23T11:58:55.946Z,1003.84
2022-09-23T11:59:53.347Z,1003.75
2022-09-23T12:00:59.102Z,1003.74
2022-09-23T12:01:53.813Z,1003.73
2022-09-23T12:03:01.341Z,1003.59
2022-09-23T12:03:54.772Z,1003.55
2022-09-23T12:04:57.881Z,1003.57
2022-09-23T12:05:55.704Z,1003.58
2022-09-23T12:06:53.630Z,1003.53
2022-09-23T12:07:53.760Z,1003.53